sensor_id;sensor_type;location;lat;lon;timestamp;temperature;humidity
66722;SHT31;53633;49.932;10.884;2023-06-14T00:02:09;15.12;64.80
66722;SHT31;53633;49.932;10.884;2023-06-14T00:04:36;15.16;64.79
66722;SHT31;53633;49.932;10.884;2023-06-14T00:07:03;15.30;64.25
66722;SHT31;53633;49.932;10.884;2023-06-14T00:09:31;15.12;64.63
66722;SHT31;53633;49.932;10.884;2023-06-14T00:11:57;14.68;66.17
66722;SHT31;53633;49.932;10.884;2023-06-14T00:14:24;14.77;65.98
66722;SHT31;53633;49.932;10.884;2023-06-14T00:16:51;14.62;66.22
66722;SHT31;53633;49.932;10.884;2023-06-14T00:19:19;14.42;66.85
66722;SHT31;53633;49.932;10.884;2023-06-14T00:21:46;14.42;67.23
66722;SHT31;53633;49.932;10.884;2023-06-14T00:24:13;14.75;66.62
66722;SHT31;53633;49.932;10.884;2023-06-14T00:26:39;15.08;65.47
66722;SHT31;53633;49.932;10.884;2023-06-14T00:29:06;15.18;65.06
66722;SHT31;53633;49.932;10.884;2023-06-14T00:31:33;15.24;64.85
66722;SHT31;53633;49.932;10.884;2023-06-14T00:33:59;15.04;65.31
66722;SHT31;53633;49.932;10.884;2023-06-14T00:36:27;15.08;65.43
66722;SHT31;53633;49.932;10.884;2023-06-14T00:38:54;15.14;65.18
66722;SHT31;53633;49.932;10.884;2023-06-14T00:41:21;14.98;65.52
66722;SHT31;53633;49.932;10.884;2023-06-14T00:43:47;14.81;65.97
66722;SHT31;53633;49.932;10.884;2023-06-14T00:46:14;14.60;66.78
66722;SHT31;53633;49.932;10.884;2023-06-14T00:48:41;14.63;66.84
66722;SHT31;53633;49.932;10.884;2023-06-14T00:51:08;14.93;65.95
66722;SHT31;53633;49.932;10.884;2023-06-14T00:53:36;14.97;65.40
66722;SHT31;53633;49.932;10.884;2023-06-14T00:56:03;14.97;65.58
66722;SHT31;53633;49.932;10.884;2023-06-14T00:58:30;14.90;65.91
66722;SHT31;53633;49.932;10.884;2023-06-14T01:00:57;14.68;66.58
66722;SHT31;53633;49.932;10.884;2023-06-14T01:03:24;14.58;66.99
66722;SHT31;53633;49.932;10.884;2023-06-14T01:05:56;14.29;67.78
66722;SHT31;53633;49.932;10.884;2023-06-14T01:08:33;14.21;68.27
66722;SHT31;53633;49.932;10.884;2023-06-14T01:11:17;14.53;67.31
66722;SHT31;53633;49.932;10.884;2023-06-14T01:13:46;14.66;66.47
66722;SHT31;53633;49.932;10.884;2023-06-14T01:16:13;14.70;66.24
66722;SHT31;53633;49.932;10.884;2023-06-14T01:18:40;14.83;65.67
66722;SHT31;53633;49.932;10.884;2023-06-14T01:21:20;14.86;65.50
66722;SHT31;53633;49.932;10.884;2023-06-14T01:23:48;14.91;65.39
66722;SHT31;53633;49.932;10.884;2023-06-14T01:26:14;14.86;65.61
66722;SHT31;53633;49.932;10.884;2023-06-14T01:28:41;14.77;66.00
66722;SHT31;53633;49.932;10.884;2023-06-14T01:31:08;14.79;66.10
66722;SHT31;53633;49.932;10.884;2023-06-14T01:33:36;14.90;65.67
66722;SHT31;53633;49.932;10.884;2023-06-14T01:36:05;14.79;65.79
66722;SHT31;53633;49.932;10.884;2023-06-14T01:38:33;14.80;65.77
66722;SHT31;53633;49.932;10.884;2023-06-14T01:41:02;14.76;65.73
66722;SHT31;53633;49.932;10.884;2023-06-14T01:43:31;14.83;65.39
66722;SHT31;53633;49.932;10.884;2023-06-14T01:45:58;14.86;65.70
66722;SHT31;53633;49.932;10.884;2023-06-14T01:48:26;14.93;65.37
66722;SHT31;53633;49.932;10.884;2023-06-14T01:50:53;14.91;65.54
66722;SHT31;53633;49.932;10.884;2023-06-14T01:53:21;14.87;65.73
66722;SHT31;53633;49.932;10.884;2023-06-14T01:55:48;14.68;66.07
66722;SHT31;53633;49.932;10.884;2023-06-14T01:58:16;14.70;66.25
66722;SHT31;53633;49.932;10.884;2023-06-14T02:00:43;14.75;66.07
66722;SHT31;53633;49.932;10.884;2023-06-14T02:03:10;14.66;66.17
66722;SHT31;53633;49.932;10.884;2023-06-14T02:05:37;14.65;66.21
66722;SHT31;53633;49.932;10.884;2023-06-14T02:08:04;14.51;66.64
66722;SHT31;53633;49.932;10.884;2023-06-14T02:10:31;14.45;66.88
66722;SHT31;53633;49.932;10.884;2023-06-14T02:12:57;14.39;67.10
66722;SHT31;53633;49.932;10.884;2023-06-14T02:15:26;14.45;66.98
66722;SHT31;53633;49.932;10.884;2023-06-14T02:17:52;14.41;67.20
66722;SHT31;53633;49.932;10.884;2023-06-14T02:20:19;14.25;67.55
66722;SHT31;53633;49.932;10.884;2023-06-14T02:22:46;13.91;68.82
66722;SHT31;53633;49.932;10.884;2023-06-14T02:25:13;13.91;69.27
66722;SHT31;53633;49.932;10.884;2023-06-14T02:27:39;14.13;68.58
66722;SHT31;53633;49.932;10.884;2023-06-14T02:30:07;14.11;68.51
66722;SHT31;53633;49.932;10.884;2023-06-14T02:32:35;14.05;68.59
66722;SHT31;53633;49.932;10.884;2023-06-14T02:35:03;14.15;68.08
66722;SHT31;53633;49.932;10.884;2023-06-14T02:37:29;14.17;67.97
66722;SHT31;53633;49.932;10.884;2023-06-14T02:39:56;14.31;67.54
66722;SHT31;53633;49.932;10.884;2023-06-14T02:42:23;14.24;67.88
66722;SHT31;53633;49.932;10.884;2023-06-14T02:44:49;14.25;67.76
66722;SHT31;53633;49.932;10.884;2023-06-14T02:47:16;14.21;67.80
66722;SHT31;53633;49.932;10.884;2023-06-14T02:49:44;14.20;67.88
66722;SHT31;53633;49.932;10.884;2023-06-14T02:52:11;14.18;68.04
66722;SHT31;53633;49.932;10.884;2023-06-14T02:54:38;14.22;67.67
66722;SHT31;53633;49.932;10.884;2023-06-14T02:57:05;14.21;67.59
66722;SHT31;53633;49.932;10.884;2023-06-14T02:59:32;14.20;67.51
66722;SHT31;53633;49.932;10.884;2023-06-14T03:01:59;14.18;67.56
66722;SHT31;53633;49.932;10.884;2023-06-14T03:04:26;14.14;67.58
66722;SHT31;53633;49.932;10.884;2023-06-14T03:06:54;14.11;67.81
66722;SHT31;53633;49.932;10.884;2023-06-14T03:09:21;14.08;67.88
66722;SHT31;53633;49.932;10.884;2023-06-14T03:11:48;14.08;67.82
66722;SHT31;53633;49.932;10.884;2023-06-14T03:14:15;14.10;67.89
66722;SHT31;53633;49.932;10.884;2023-06-14T03:16:42;14.14;67.62
66722;SHT31;53633;49.932;10.884;2023-06-14T03:19:08;14.24;67.41
66722;SHT31;53633;49.932;10.884;2023-06-14T03:21:35;14.21;67.50
66722;SHT31;53633;49.932;10.884;2023-06-14T03:24:04;14.18;67.50
66722;SHT31;53633;49.932;10.884;2023-06-14T03:26:31;14.21;67.51
66722;SHT31;53633;49.932;10.884;2023-06-14T03:28:57;14.18;67.53
66722;SHT31;53633;49.932;10.884;2023-06-14T03:31:24;14.18;67.58
66722;SHT31;53633;49.932;10.884;2023-06-14T03:33:51;14.13;67.50
66722;SHT31;53633;49.932;10.884;2023-06-14T03:36:17;14.17;67.69
66722;SHT31;53633;49.932;10.884;2023-06-14T03:38:44;14.25;67.59
66722;SHT31;53633;49.932;10.884;2023-06-14T03:41:12;14.22;67.34
66722;SHT31;53633;49.932;10.884;2023-06-14T03:43:39;14.26;67.45
66722;SHT31;53633;49.932;10.884;2023-06-14T03:46:06;14.42;67.14
66722;SHT31;53633;49.932;10.884;2023-06-14T03:48:32;14.49;66.86
66722;SHT31;53633;49.932;10.884;2023-06-14T03:50:59;14.52;67.11
66722;SHT31;53633;49.932;10.884;2023-06-14T03:53:27;14.51;67.33
66722;SHT31;53633;49.932;10.884;2023-06-14T03:55:54;14.46;67.81
66722;SHT31;53633;49.932;10.884;2023-06-14T03:58:24;14.21;68.60
66722;SHT31;53633;49.932;10.884;2023-06-14T04:00:51;14.20;69.01
66722;SHT31;53633;49.932;10.884;2023-06-14T04:03:17;14.42;68.31
66722;SHT31;53633;49.932;10.884;2023-06-14T04:05:44;14.45;68.45
66722;SHT31;53633;49.932;10.884;2023-06-14T04:08:11;14.49;68.48
66722;SHT31;53633;49.932;10.884;2023-06-14T04:10:38;14.87;67.48
66722;SHT31;53633;49.932;10.884;2023-06-14T04:13:05;15.82;65.53
66722;SHT31;53633;49.932;10.884;2023-06-14T04:15:33;16.54;62.48
66722;SHT31;53633;49.932;10.884;2023-06-14T04:18:00;17.40;60.27
66722;SHT31;53633;49.932;10.884;2023-06-14T04:20:27;17.90;58.97
66722;SHT31;53633;49.932;10.884;2023-06-14T04:22:53;18.03;58.39
66722;SHT31;53633;49.932;10.884;2023-06-14T04:25:20;17.83;58.59
66722;SHT31;53633;49.932;10.884;2023-06-14T04:27:51;17.81;58.43
66722;SHT31;53633;49.932;10.884;2023-06-14T04:30:17;17.74;58.79
66722;SHT31;53633;49.932;10.884;2023-06-14T04:32:45;17.62;59.07
66722;SHT31;53633;49.932;10.884;2023-06-14T04:35:12;17.78;58.88
66722;SHT31;53633;49.932;10.884;2023-06-14T04:37:40;17.93;58.51
66722;SHT31;53633;49.932;10.884;2023-06-14T04:40:08;18.07;57.85
66722;SHT31;53633;49.932;10.884;2023-06-14T04:42:38;18.44;57.05
66722;SHT31;53633;49.932;10.884;2023-06-14T04:45:06;18.69;56.27
66722;SHT31;53633;49.932;10.884;2023-06-14T04:47:33;18.94;55.48
66722;SHT31;53633;49.932;10.884;2023-06-14T04:50:01;19.24;54.84
66722;SHT31;53633;49.932;10.884;2023-06-14T04:52:28;19.75;53.80
66722;SHT31;53633;49.932;10.884;2023-06-14T04:54:55;20.57;51.84
66722;SHT31;53633;49.932;10.884;2023-06-14T04:57:22;21.31;50.15
66722;SHT31;53633;49.932;10.884;2023-06-14T04:59:49;21.39;49.53
66722;SHT31;53633;49.932;10.884;2023-06-14T05:02:15;21.32;49.63
66722;SHT31;53633;49.932;10.884;2023-06-14T05:04:42;21.94;48.45
66722;SHT31;53633;49.932;10.884;2023-06-14T05:07:10;22.22;48.16
66722;SHT31;53633;49.932;10.884;2023-06-14T05:09:37;22.65;46.90
66722;SHT31;53633;49.932;10.884;2023-06-14T05:12:05;22.89;47.18
66722;SHT31;53633;49.932;10.884;2023-06-14T05:14:32;23.03;46.73
66722;SHT31;53633;49.932;10.884;2023-06-14T05:16:58;23.54;45.51
66722;SHT31;53633;49.932;10.884;2023-06-14T05:19:25;24.12;44.79
66722;SHT31;53633;49.932;10.884;2023-06-14T05:21:52;24.67;44.03
66722;SHT31;53633;49.932;10.884;2023-06-14T05:24:20;24.13;44.55
66722;SHT31;53633;49.932;10.884;2023-06-14T05:26:47;24.54;43.79
66722;SHT31;53633;49.932;10.884;2023-06-14T05:29:13;24.33;43.88
66722;SHT31;53633;49.932;10.884;2023-06-14T05:31:40;24.00;44.14
66722;SHT31;53633;49.932;10.884;2023-06-14T05:34:07;24.30;44.14
66722;SHT31;53633;49.932;10.884;2023-06-14T05:36:34;24.69;43.87
66722;SHT31;53633;49.932;10.884;2023-06-14T05:39:00;24.99;42.68
66722;SHT31;53633;49.932;10.884;2023-06-14T05:41:28;25.03;42.63
66722;SHT31;53633;49.932;10.884;2023-06-14T05:43:56;24.57;43.10
66722;SHT31;53633;49.932;10.884;2023-06-14T05:46:23;24.62;43.17
66722;SHT31;53633;49.932;10.884;2023-06-14T05:48:50;24.82;42.65
66722;SHT31;53633;49.932;10.884;2023-06-14T05:51:17;25.22;42.37
66722;SHT31;53633;49.932;10.884;2023-06-14T05:53:44;25.19;42.62
66722;SHT31;53633;49.932;10.884;2023-06-14T05:56:11;24.72;42.87
66722;SHT31;53633;49.932;10.884;2023-06-14T05:58:39;25.24;42.06
66722;SHT31;53633;49.932;10.884;2023-06-14T06:01:06;25.63;41.42
66722;SHT31;53633;49.932;10.884;2023-06-14T06:03:32;25.91;41.34
66722;SHT31;53633;49.932;10.884;2023-06-14T06:05:59;25.70;41.60
66722;SHT31;53633;49.932;10.884;2023-06-14T06:08:26;26.25;41.41
66722;SHT31;53633;49.932;10.884;2023-06-14T06:10:53;26.80;39.98
66722;SHT31;53633;49.932;10.884;2023-06-14T06:13:19;26.58;40.24
66722;SHT31;53633;49.932;10.884;2023-06-14T06:15:48;26.85;39.59
66722;SHT31;53633;49.932;10.884;2023-06-14T06:18:14;27.09;39.06
66722;SHT31;53633;49.932;10.884;2023-06-14T06:20:41;27.11;38.58
66722;SHT31;53633;49.932;10.884;2023-06-14T06:23:08;26.91;39.22
66722;SHT31;53633;49.932;10.884;2023-06-14T06:25:34;27.39;38.77
66722;SHT31;53633;49.932;10.884;2023-06-14T06:28:01;27.83;38.26
66722;SHT31;53633;49.932;10.884;2023-06-14T06:30:28;27.81;37.47
66722;SHT31;53633;49.932;10.884;2023-06-14T06:32:56;28.09;37.86
66722;SHT31;53633;49.932;10.884;2023-06-14T06:35:23;27.90;38.51
66722;SHT31;53633;49.932;10.884;2023-06-14T06:37:50;28.01;38.21
66722;SHT31;53633;49.932;10.884;2023-06-14T06:40:16;28.31;37.21
66722;SHT31;53633;49.932;10.884;2023-06-14T06:42:43;27.86;37.90
66722;SHT31;53633;49.932;10.884;2023-06-14T06:45:10;26.71;39.78
66722;SHT31;53633;49.932;10.884;2023-06-14T06:47:37;26.74;39.30
66722;SHT31;53633;49.932;10.884;2023-06-14T06:50:06;27.39;38.05
66722;SHT31;53633;49.932;10.884;2023-06-14T06:52:33;27.93;37.53
66722;SHT31;53633;49.932;10.884;2023-06-14T06:55:00;28.08;36.70
66722;SHT31;53633;49.932;10.884;2023-06-14T06:57:26;27.42;37.39
66722;SHT31;53633;49.932;10.884;2023-06-14T06:59:53;28.02;35.98
66722;SHT31;53633;49.932;10.884;2023-06-14T07:02:20;27.76;37.33
66722;SHT31;53633;49.932;10.884;2023-06-14T07:04:47;27.53;37.12
66722;SHT31;53633;49.932;10.884;2023-06-14T07:07:15;27.61;37.00
66722;SHT31;53633;49.932;10.884;2023-06-14T07:09:42;26.98;37.55
66722;SHT31;53633;49.932;10.884;2023-06-14T07:12:08;27.11;37.18
66722;SHT31;53633;49.932;10.884;2023-06-14T07:14:35;26.16;37.74
66722;SHT31;53633;49.932;10.884;2023-06-14T07:17:02;25.74;38.56
66722;SHT31;53633;49.932;10.884;2023-06-14T07:19:29;25.82;38.54
66722;SHT31;53633;49.932;10.884;2023-06-14T07:21:55;25.91;38.25
66722;SHT31;53633;49.932;10.884;2023-06-14T07:24:23;25.54;38.33
66722;SHT31;53633;49.932;10.884;2023-06-14T07:26:50;25.61;38.42
66722;SHT31;53633;49.932;10.884;2023-06-14T07:29:17;25.40;38.79
66722;SHT31;53633;49.932;10.884;2023-06-14T07:31:43;25.57;38.47
66722;SHT31;53633;49.932;10.884;2023-06-14T07:34:10;25.53;37.90
66722;SHT31;53633;49.932;10.884;2023-06-14T07:36:37;25.22;38.48
66722;SHT31;53633;49.932;10.884;2023-06-14T07:39:04;25.33;38.29
66722;SHT31;53633;49.932;10.884;2023-06-14T07:41:32;25.46;38.10
66722;SHT31;53633;49.932;10.884;2023-06-14T07:43:59;24.98;39.38
66722;SHT31;53633;49.932;10.884;2023-06-14T07:46:26;24.86;38.80
66722;SHT31;53633;49.932;10.884;2023-06-14T07:48:53;24.99;38.16
66722;SHT31;53633;49.932;10.884;2023-06-14T07:51:20;25.47;38.22
66722;SHT31;53633;49.932;10.884;2023-06-14T07:53:47;25.47;37.98
66722;SHT31;53633;49.932;10.884;2023-06-14T07:56:14;25.91;37.64
66722;SHT31;53633;49.932;10.884;2023-06-14T07:58:42;25.27;38.17
66722;SHT31;53633;49.932;10.884;2023-06-14T08:01:09;25.38;37.93
66722;SHT31;53633;49.932;10.884;2023-06-14T08:03:36;25.23;37.31
66722;SHT31;53633;49.932;10.884;2023-06-14T08:06:03;25.44;37.04
66722;SHT31;53633;49.932;10.884;2023-06-14T08:08:30;25.19;36.81
66722;SHT31;53633;49.932;10.884;2023-06-14T08:10:57;25.19;37.34
66722;SHT31;53633;49.932;10.884;2023-06-14T08:13:23;24.78;37.98
66722;SHT31;53633;49.932;10.884;2023-06-14T08:15:52;24.52;38.72
66722;SHT31;53633;49.932;10.884;2023-06-14T08:18:18;24.61;37.77
66722;SHT31;53633;49.932;10.884;2023-06-14T08:20:45;24.76;37.14
66722;SHT31;53633;49.932;10.884;2023-06-14T08:23:12;25.03;38.02
66722;SHT31;53633;49.932;10.884;2023-06-14T08:25:38;25.41;36.72
66722;SHT31;53633;49.932;10.884;2023-06-14T08:28:05;25.73;35.89
66722;SHT31;53633;49.932;10.884;2023-06-14T08:30:32;25.98;36.91
66722;SHT31;53633;49.932;10.884;2023-06-14T08:33:00;26.09;35.31
66722;SHT31;53633;49.932;10.884;2023-06-14T08:35:42;26.56;35.30
66722;SHT31;53633;49.932;10.884;2023-06-14T08:38:10;27.11;35.32
66722;SHT31;53633;49.932;10.884;2023-06-14T08:40:37;26.70;35.04
66722;SHT31;53633;49.932;10.884;2023-06-14T08:43:04;26.80;35.14
66722;SHT31;53633;49.932;10.884;2023-06-14T08:45:31;27.09;34.35
66722;SHT31;53633;49.932;10.884;2023-06-14T08:47:59;26.26;34.48
66722;SHT31;53633;49.932;10.884;2023-06-14T08:50:27;26.78;34.50
66722;SHT31;53633;49.932;10.884;2023-06-14T08:52:56;27.42;33.82
66722;SHT31;53633;49.932;10.884;2023-06-14T08:55:24;27.59;33.50
66722;SHT31;53633;49.932;10.884;2023-06-14T08:57:50;27.83;34.80
66722;SHT31;53633;49.932;10.884;2023-06-14T09:00:18;27.18;33.85
66722;SHT31;53633;49.932;10.884;2023-06-14T09:02:45;28.21;32.78
66722;SHT31;53633;49.932;10.884;2023-06-14T09:05:13;28.31;32.44
66722;SHT31;53633;49.932;10.884;2023-06-14T09:07:40;28.11;32.90
66722;SHT31;53633;49.932;10.884;2023-06-14T09:10:08;27.63;33.04
66722;SHT31;53633;49.932;10.884;2023-06-14T09:12:35;27.88;33.34
66722;SHT31;53633;49.932;10.884;2023-06-14T09:15:02;28.09;33.93
66722;SHT31;53633;49.932;10.884;2023-06-14T09:17:29;28.62;32.00
66722;SHT31;53633;49.932;10.884;2023-06-14T09:19:56;28.74;31.67
66722;SHT31;53633;49.932;10.884;2023-06-14T09:22:24;27.61;33.19
66722;SHT31;53633;49.932;10.884;2023-06-14T09:24:51;27.90;33.09
66722;SHT31;53633;49.932;10.884;2023-06-14T09:27:18;27.90;33.74
66722;SHT31;53633;49.932;10.884;2023-06-14T09:29:45;27.31;33.81
66722;SHT31;53633;49.932;10.884;2023-06-14T09:32:11;27.43;33.27
66722;SHT31;53633;49.932;10.884;2023-06-14T09:34:38;27.70;32.39
66722;SHT31;53633;49.932;10.884;2023-06-14T09:37:05;27.80;32.62
66722;SHT31;53633;49.932;10.884;2023-06-14T09:39:33;28.01;32.39
66722;SHT31;53633;49.932;10.884;2023-06-14T09:42:00;28.04;32.46
66722;SHT31;53633;49.932;10.884;2023-06-14T09:44:27;28.79;31.50
66722;SHT31;53633;49.932;10.884;2023-06-14T09:46:55;28.19;32.67
66722;SHT31;53633;49.932;10.884;2023-06-14T09:49:22;28.17;32.32
66722;SHT31;53633;49.932;10.884;2023-06-14T09:51:51;27.88;31.93
66722;SHT31;53633;49.932;10.884;2023-06-14T09:54:22;28.49;31.99
66722;SHT31;53633;49.932;10.884;2023-06-14T09:56:51;28.15;31.16
66722;SHT31;53633;49.932;10.884;2023-06-14T09:59:21;28.63;30.95
66722;SHT31;53633;49.932;10.884;2023-06-14T10:01:49;28.80;30.81
66722;SHT31;53633;49.932;10.884;2023-06-14T10:04:18;27.67;32.22
66722;SHT31;53633;49.932;10.884;2023-06-14T10:06:49;26.29;33.86
66722;SHT31;53633;49.932;10.884;2023-06-14T10:09:17;25.70;34.72
66722;SHT31;53633;49.932;10.884;2023-06-14T10:11:44;25.88;34.30
66722;SHT31;53633;49.932;10.884;2023-06-14T10:14:13;26.50;34.13
66722;SHT31;53633;49.932;10.884;2023-06-14T10:16:46;26.98;33.09
66722;SHT31;53633;49.932;10.884;2023-06-14T10:19:18;26.58;34.27
66722;SHT31;53633;49.932;10.884;2023-06-14T10:21:54;26.81;34.37
66722;SHT31;53633;49.932;10.884;2023-06-14T10:24:28;25.67;35.01
66722;SHT31;53633;49.932;10.884;2023-06-14T10:26:57;25.51;35.16
66722;SHT31;53633;49.932;10.884;2023-06-14T10:29:28;25.26;35.74
66722;SHT31;53633;49.932;10.884;2023-06-14T10:31:57;25.74;36.05
66722;SHT31;53633;49.932;10.884;2023-06-14T10:34:24;25.43;35.56
66722;SHT31;53633;49.932;10.884;2023-06-14T10:37:03;25.19;36.27
66722;SHT31;53633;49.932;10.884;2023-06-14T10:39:30;25.24;36.65
66722;SHT31;53633;49.932;10.884;2023-06-14T10:41:58;25.63;37.15
66722;SHT31;53633;49.932;10.884;2023-06-14T10:44:46;25.74;35.77
66722;SHT31;53633;49.932;10.884;2023-06-14T10:47:26;25.46;35.45
66722;SHT31;53633;49.932;10.884;2023-06-14T10:49:54;24.89;36.24
66722;SHT31;53633;49.932;10.884;2023-06-14T10:52:24;25.20;35.78
66722;SHT31;53633;49.932;10.884;2023-06-14T10:55:05;25.85;34.76
66722;SHT31;53633;49.932;10.884;2023-06-14T10:57:33;26.28;34.33
66722;SHT31;53633;49.932;10.884;2023-06-14T11:00:18;26.46;35.24
66722;SHT31;53633;49.932;10.884;2023-06-14T11:05:51;25.27;36.11
66722;SHT31;53633;49.932;10.884;2023-06-14T11:11:31;24.95;36.99
66722;SHT31;53633;49.932;10.884;2023-06-14T11:14:00;25.15;35.68
66722;SHT31;53633;49.932;10.884;2023-06-14T11:16:28;25.37;36.04
66722;SHT31;53633;49.932;10.884;2023-06-14T11:18:55;25.47;35.92
66722;SHT31;53633;49.932;10.884;2023-06-14T11:21:21;25.28;35.61
66722;SHT31;53633;49.932;10.884;2023-06-14T11:23:49;25.00;35.29
66722;SHT31;53633;49.932;10.884;2023-06-14T11:26:16;25.02;36.21
66722;SHT31;53633;49.932;10.884;2023-06-14T11:28:55;25.03;36.85
66722;SHT31;53633;49.932;10.884;2023-06-14T11:31:22;24.82;37.19
66722;SHT31;53633;49.932;10.884;2023-06-14T11:33:51;25.13;36.24
66722;SHT31;53633;49.932;10.884;2023-06-14T11:36:19;25.13;37.42
66722;SHT31;53633;49.932;10.884;2023-06-14T11:38:46;25.54;37.53
66722;SHT31;53633;49.932;10.884;2023-06-14T11:41:13;25.92;34.63
66722;SHT31;53633;49.932;10.884;2023-06-14T11:43:40;26.40;34.98
66722;SHT31;53633;49.932;10.884;2023-06-14T11:46:12;26.60;34.46
66722;SHT31;53633;49.932;10.884;2023-06-14T11:48:41;25.86;34.80
66722;SHT31;53633;49.932;10.884;2023-06-14T11:51:09;25.93;34.96
66722;SHT31;53633;49.932;10.884;2023-06-14T11:53:36;26.01;33.71
66722;SHT31;53633;49.932;10.884;2023-06-14T11:56:03;25.86;34.02
66722;SHT31;53633;49.932;10.884;2023-06-14T11:58:30;25.67;34.84
66722;SHT31;53633;49.932;10.884;2023-06-14T12:00:57;25.19;35.82
66722;SHT31;53633;49.932;10.884;2023-06-14T12:03:24;24.69;36.94
66722;SHT31;53633;49.932;10.884;2023-06-14T12:06:01;24.33;37.36
66722;SHT31;53633;49.932;10.884;2023-06-14T12:08:33;24.20;37.25
66722;SHT31;53633;49.932;10.884;2023-06-14T12:11:00;24.09;37.47
66722;SHT31;53633;49.932;10.884;2023-06-14T12:13:27;24.35;37.10
66722;SHT31;53633;49.932;10.884;2023-06-14T12:15:54;24.72;35.98
66722;SHT31;53633;49.932;10.884;2023-06-14T12:18:21;25.09;34.11
66722;SHT31;53633;49.932;10.884;2023-06-14T12:20:58;25.47;33.44
66722;SHT31;53633;49.932;10.884;2023-06-14T12:23:25;25.09;34.76
66722;SHT31;53633;49.932;10.884;2023-06-14T12:26:07;25.17;35.11
66722;SHT31;53633;49.932;10.884;2023-06-14T12:28:37;25.19;35.27
66722;SHT31;53633;49.932;10.884;2023-06-14T12:31:06;24.68;36.77
66722;SHT31;53633;49.932;10.884;2023-06-14T12:33:33;24.52;37.51
66722;SHT31;53633;49.932;10.884;2023-06-14T12:35:59;24.09;37.48
66722;SHT31;53633;49.932;10.884;2023-06-14T12:38:26;24.10;37.63
66722;SHT31;53633;49.932;10.884;2023-06-14T12:40:53;24.28;37.38
66722;SHT31;53633;49.932;10.884;2023-06-14T12:43:21;24.57;36.97
66722;SHT31;53633;49.932;10.884;2023-06-14T12:45:48;24.67;36.58
66722;SHT31;53633;49.932;10.884;2023-06-14T12:48:14;24.64;36.73
66722;SHT31;53633;49.932;10.884;2023-06-14T12:50:41;24.71;35.29
66722;SHT31;53633;49.932;10.884;2023-06-14T12:53:08;25.19;34.33
66722;SHT31;53633;49.932;10.884;2023-06-14T12:55:35;25.61;33.95
66722;SHT31;53633;49.932;10.884;2023-06-14T12:58:01;25.85;33.55
66722;SHT31;53633;49.932;10.884;2023-06-14T13:00:30;25.77;33.89
66722;SHT31;53633;49.932;10.884;2023-06-14T13:02:57;26.05;34.57
66722;SHT31;53633;49.932;10.884;2023-06-14T13:05:24;26.16;34.01
66722;SHT31;53633;49.932;10.884;2023-06-14T13:07:50;26.12;33.62
66722;SHT31;53633;49.932;10.884;2023-06-14T13:10:17;25.78;34.30
66722;SHT31;53633;49.932;10.884;2023-06-14T13:12:44;25.80;35.06
66722;SHT31;53633;49.932;10.884;2023-06-14T13:15:11;25.57;36.12
66722;SHT31;53633;49.932;10.884;2023-06-14T13:17:39;25.26;36.91
66722;SHT31;53633;49.932;10.884;2023-06-14T13:20:06;24.79;36.91
66722;SHT31;53633;49.932;10.884;2023-06-14T13:22:34;24.72;36.21
66722;SHT31;53633;49.932;10.884;2023-06-14T13:25:01;24.68;35.98
66722;SHT31;53633;49.932;10.884;2023-06-14T13:27:27;24.71;35.72
66722;SHT31;53633;49.932;10.884;2023-06-14T13:29:55;24.85;35.76
66722;SHT31;53633;49.932;10.884;2023-06-14T13:32:22;24.72;35.79
66722;SHT31;53633;49.932;10.884;2023-06-14T13:34:51;24.79;36.04
66722;SHT31;53633;49.932;10.884;2023-06-14T13:37:17;24.81;35.57
66722;SHT31;53633;49.932;10.884;2023-06-14T13:39:44;24.75;36.86
66722;SHT31;53633;49.932;10.884;2023-06-14T13:42:11;24.81;35.97
66722;SHT31;53633;49.932;10.884;2023-06-14T13:44:37;24.83;34.05
66722;SHT31;53633;49.932;10.884;2023-06-14T13:47:05;24.99;35.04
66722;SHT31;53633;49.932;10.884;2023-06-14T13:49:32;25.03;34.78
66722;SHT31;53633;49.932;10.884;2023-06-14T13:52:02;24.98;35.33
66722;SHT31;53633;49.932;10.884;2023-06-14T13:54:29;24.95;36.02
66722;SHT31;53633;49.932;10.884;2023-06-14T13:56:55;25.08;36.15
66722;SHT31;53633;49.932;10.884;2023-06-14T13:59:22;24.93;35.89
66722;SHT31;53633;49.932;10.884;2023-06-14T14:01:49;25.09;36.39
66722;SHT31;53633;49.932;10.884;2023-06-14T14:04:16;25.51;34.66
66722;SHT31;53633;49.932;10.884;2023-06-14T14:06:42;25.64;34.37
66722;SHT31;53633;49.932;10.884;2023-06-14T14:09:11;25.70;33.90
66722;SHT31;53633;49.932;10.884;2023-06-14T14:11:37;26.19;33.43
66722;SHT31;53633;49.932;10.884;2023-06-14T14:14:04;26.39;34.42
66722;SHT31;53633;49.932;10.884;2023-06-14T14:16:31;26.08;34.77
66722;SHT31;53633;49.932;10.884;2023-06-14T14:18:58;26.11;34.55
66722;SHT31;53633;49.932;10.884;2023-06-14T14:21:25;25.85;35.82
66722;SHT31;53633;49.932;10.884;2023-06-14T14:23:51;25.48;35.43
66722;SHT31;53633;49.932;10.884;2023-06-14T14:26:19;25.06;36.38
66722;SHT31;53633;49.932;10.884;2023-06-14T14:28:46;24.83;36.50
66722;SHT31;53633;49.932;10.884;2023-06-14T14:31:13;24.78;36.97
66722;SHT31;53633;49.932;10.884;2023-06-14T14:33:40;24.55;37.01
66722;SHT31;53633;49.932;10.884;2023-06-14T14:36:06;24.65;37.36
66722;SHT31;53633;49.932;10.884;2023-06-14T14:38:34;24.54;37.39
66722;SHT31;53633;49.932;10.884;2023-06-14T14:41:01;24.44;37.17
66722;SHT31;53633;49.932;10.884;2023-06-14T14:43:29;24.35;37.99
66722;SHT31;53633;49.932;10.884;2023-06-14T14:45:56;24.48;37.33
66722;SHT31;53633;49.932;10.884;2023-06-14T14:48:23;24.50;37.25
66722;SHT31;53633;49.932;10.884;2023-06-14T14:50:50;24.44;38.21
66722;SHT31;53633;49.932;10.884;2023-06-14T14:53:16;24.25;39.01
66722;SHT31;53633;49.932;10.884;2023-06-14T14:55:43;24.35;39.16
66722;SHT31;53633;49.932;10.884;2023-06-14T14:58:12;24.16;40.09
66722;SHT31;53633;49.932;10.884;2023-06-14T15:00:40;24.10;39.50
66722;SHT31;53633;49.932;10.884;2023-06-14T15:03:07;24.05;39.61
66722;SHT31;53633;49.932;10.884;2023-06-14T15:05:34;23.92;41.10
66722;SHT31;53633;49.932;10.884;2023-06-14T15:08:00;23.85;41.10
66722;SHT31;53633;49.932;10.884;2023-06-14T15:10:27;23.85;40.77
66722;SHT31;53633;49.932;10.884;2023-06-14T15:12:54;23.83;40.41
66722;SHT31;53633;49.932;10.884;2023-06-14T15:15:21;23.82;40.58
66722;SHT31;53633;49.932;10.884;2023-06-14T15:17:49;23.83;40.11
66722;SHT31;53633;49.932;10.884;2023-06-14T15:20:16;23.90;40.50
66722;SHT31;53633;49.932;10.884;2023-06-14T15:22:43;23.89;39.57
66722;SHT31;53633;49.932;10.884;2023-06-14T15:25:10;24.02;39.22